Time;durP1;ratioP1;P1;durP2;ratioP2;P2;SDS_P1;SDS_P2;PMS_P1;PMS_P2;Temp;Humidity;BMP_temperature;BMP_pressure;BME280_temperature;BME280_humidity;BME280_pressure;Samples;Min_cycle;Max_cycle;Signal;HPM_P1;HPM_P2
2022/07/07 00:01:54;;;;;;;2.40;1.73;;;;;;;17.05;49.32;99482.03;2617393;47;20053;-71
2022/07/07 00:04:27;;;;;;;1.83;1.45;;;;;;;17.07;48.87;99477.31;2617808;54;20041;-72
2022/07/07 00:06:56;;;;;;;2.25;1.23;;;;;;;17.03;48.83;99467.28;2617068;47;20026;-71
2022/07/07 00:09:26;;;;;;;2.97;1.73;;;;;;;17.03;48.79;99461.94;2618590;54;20035;-71
2022/07/07 00:11:56;;;;;;;2.20;1.35;;;;;;;17.00;49.01;99454.34;2618624;54;20038;-71
2022/07/07 00:14:26;;;;;;;2.20;1.50;;;;;;;17.02;48.86;99455.78;2618758;54;20562;-70
2022/07/07 00:16:56;;;;;;;2.88;1.50;;;;;;;17.00;49.14;99463.19;2618488;54;20037;-70
2022/07/07 00:19:29;;;;;;;1.95;1.70;;;;;;;16.94;48.90;99463.22;2618566;54;20085;-70
2022/07/07 00:21:59;;;;;;;2.07;1.53;;;;;;;16.80;49.09;99471.34;2618655;54;20034;-72
2022/07/07 00:24:28;;;;;;;2.05;1.52;;;;;;;16.71;49.46;99463.78;2618056;51;20034;-71
2022/07/07 00:26:58;;;;;;;4.53;1.52;;;;;;;16.76;50.01;99469.31;2618456;54;20065;-71
2022/07/07 00:29:28;;;;;;;2.55;1.63;;;;;;;16.71;49.43;99472.59;2618319;54;20033;-72
2022/07/07 00:31:57;;;;;;;2.78;1.48;;;;;;;16.57;50.13;99471.03;2618621;54;20042;-71
2022/07/07 00:34:29;;;;;;;3.70;1.55;;;;;;;16.42;50.16;99466.03;2618462;54;20572;-71
2022/07/07 00:37:00;;;;;;;2.88;1.88;;;;;;;16.43;50.55;99470.31;2618503;54;20053;-71
2022/07/07 00:39:30;;;;;;;2.85;1.63;;;;;;;16.51;50.70;99466.59;2618678;54;20038;-71
2022/07/07 00:41:59;;;;;;;3.17;1.63;;;;;;;16.53;50.81;99465.34;2619085;39;20512;-71
2022/07/07 00:44:29;;;;;;;2.85;1.65;;;;;;;16.47;51.00;99463.53;2617913;47;20034;-71
2022/07/07 00:47:00;;;;;;;4.72;1.63;;;;;;;16.38;51.42;99467.47;2618644;54;20026;-71
2022/07/07 00:49:35;;;;;;;1.88;1.58;;;;;;;16.40;51.21;99462.75;2618753;54;20030;-71
2022/07/07 00:52:05;;;;;;;1.75;1.40;;;;;;;16.44;51.28;99468.47;2618449;54;20034;-70
2022/07/07 00:54:34;;;;;;;2.17;1.40;;;;;;;16.34;51.18;99471.59;2618210;47;20026;-71
2022/07/07 00:57:06;;;;;;;2.40;1.60;;;;;;;16.42;51.87;99473.22;2618688;54;20038;-73
2022/07/07 00:59:58;;;;;;;2.65;1.50;;;;;;;16.51;52.05;99463.91;2619287;54;20035;-73
2022/07/07 01:02:30;;;;;;;3.63;1.92;;;;;;;16.60;51.54;99465.28;2617282;54;20089;-73
2022/07/07 01:05:06;;;;;;;2.45;1.77;;;;;;;16.62;51.87;99454.41;2617488;54;20077;-72
2022/07/07 01:07:36;;;;;;;2.40;1.55;;;;;;;16.58;51.41;99446.81;2617629;54;20034;-73
2022/07/07 01:10:08;;;;;;;3.08;1.60;;;;;;;16.58;51.42;99438.00;2618298;31;20496;-73
2022/07/07 01:12:39;;;;;;;2.67;1.70;;;;;;;16.55;51.41;99444.59;2617450;54;20038;-73
2022/07/07 01:15:13;;;;;;;2.33;1.90;;;;;;;16.49;51.81;99441.94;2617408;54;20030;-73
2022/07/07 01:17:43;;;;;;;4.82;1.92;;;;;;;16.48;52.03;99437.66;2617575;54;20557;-73
2022/07/07 01:20:16;;;;;;;2.10;1.90;;;;;;;16.52;52.58;99438.84;2617697;54;20597;-73
2022/07/07 01:22:53;;;;;;;3.95;2.00;;;;;;;16.54;52.29;99444.81;2617666;54;20042;-73
2022/07/07 01:25:23;;;;;;;1.80;1.63;;;;;;;16.45;52.02;99446.06;2617554;54;20037;-73
2022/07/07 01:27:53;;;;;;;4.20;1.70;;;;;;;16.33;52.61;99440.63;2617510;54;20042;-73
2022/07/07 01:30:23;;;;;;;2.60;1.90;;;;;;;16.18;53.56;99440.09;2617733;54;20034;-72
2022/07/07 01:32:52;;;;;;;2.00;1.70;;;;;;;16.16;53.39;99429.63;2617655;54;20065;-73
2022/07/07 01:35:22;;;;;;;1.70;1.60;;;;;;;16.12;53.43;99423.06;2618974;54;20038;-72
2022/07/07 01:37:54;;;;;;;2.75;1.77;;;;;;;15.97;53.54;99425.22;2619162;39;20427;-73
2022/07/07 01:40:23;;;;;;;2.00;1.55;;;;;;;15.90;54.29;99427.09;2619305;39;20411;-73
2022/07/07 01:42:53;;;;;;;2.83;1.90;;;;;;;15.96;54.08;99427.06;2619510;39;20407;-73
2022/07/07 01:45:23;;;;;;;4.13;2.10;;;;;;;16.00;54.33;99417.63;2618872;54;20550;-73
2022/07/07 01:47:52;;;;;;;2.67;1.90;;;;;;;15.99;54.42;99415.97;2618788;54;20597;-73
2022/07/07 01:50:23;;;;;;;5.28;2.08;;;;;;;16.03;53.65;99419.03;2618970;54;20027;-73
2022/07/07 01:52:55;;;;;;;3.55;2.08;;;;;;;15.96;54.35;99412.91;2618781;54;20037;-73
2022/07/07 01:55:24;;;;;;;2.25;1.60;;;;;;;15.99;54.05;99415.97;2618767;54;20038;-73
2022/07/07 01:57:54;;;;;;;6.70;2.00;;;;;;;15.99;54.07;99418.63;2621686;54;20037;-74
2022/07/07 02:00:24;;;;;;;2.53;1.80;;;;;;;15.95;54.51;99413.94;2625849;54;20041;-74
2022/07/07 02:02:53;;;;;;;3.50;2.00;;;;;;;16.02;54.61;99418.22;2626011;54;20118;-73
2022/07/07 02:05:23;;;;;;;3.60;2.10;;;;;;;16.08;54.38;99421.88;2626137;54;20035;-73
2022/07/07 02:07:56;;;;;;;2.88;2.00;;;;;;;15.99;54.58;99423.97;2626551;54;20062;-73
2022/07/07 02:13:08;;;;;;;16.40;13.18;;;;;;;16.01;54.26;99416.59;2624556;47;20086;-73
2022/07/07 02:15:37;;;;;;;7.03;5.40;;;;;;;16.02;54.29;99417.41;2625308;54;20041;-74
2022/07/07 02:18:07;;;;;;;5.00;2.30;;;;;;;16.13;53.52;99415.91;2623068;54;20073;-74
2022/07/07 02:20:37;;;;;;;5.68;3.10;;;;;;;16.18;53.26;99422.25;2622820;54;20030;-74
2022/07/07 02:23:09;;;;;;;5.35;2.90;;;;;;;16.22;52.93;99415.44;2623194;54;20107;-74
2022/07/07 02:25:39;;;;;;;4.40;2.35;;;;;;;16.31;52.43;99416.00;2624852;39;20419;-73
2022/07/07 02:28:09;;;;;;;5.32;3.40;;;;;;;16.40;52.48;99422.72;2625784;54;20034;-73
2022/07/07 02:30:39;;;;;;;5.65;2.10;;;;;;;16.40;52.25;99409.38;2627349;39;20465;-74
2022/07/07 02:33:09;;;;;;;3.78;1.80;;;;;;;16.41;52.56;99412.84;2629334;39;20469;-73
2022/07/07 02:35:39;;;;;;;2.53;1.58;;;;;;;16.38;52.50;99405.31;2626848;47;20042;-74
2022/07/07 02:38:11;;;;;;;3.20;1.70;;;;;;;16.23;52.84;99405.59;2627206;54;20074;-73
2022/07/07 02:40:41;;;;;;;3.00;1.90;;;;;;;16.22;53.37;99409.28;2628541;39;20422;-75
2022/07/07 02:43:12;;;;;;;2.90;1.88;;;;;;;16.20;53.58;99395.34;2626461;54;20038;-72
2022/07/07 02:45:42;;;;;;;2.75;2.25;;;;;;;16.19;53.67;99386.53;2620725;54;20054;-73
2022/07/07 02:48:14;;;;;;;4.90;2.05;;;;;;;16.10;53.33;99377.16;2619653;39;20438;-72
2022/07/07 02:50:44;;;;;;;1.80;1.50;;;;;;;16.13;52.70;99382.06;2618730;54;20034;-73
2022/07/07 02:53:16;;;;;;;2.95;2.30;;;;;;;16.17;52.32;99377.13;2618081;51;20026;-73
2022/07/07 02:55:47;;;;;;;4.63;1.60;;;;;;;16.09;52.39;99378.19;2619361;39;20438;-73
2022/07/07 02:58:19;;;;;;;6.57;1.85;;;;;;;16.07;52.17;99386.38;2618584;54;20038;-73
2022/07/07 03:00:50;;;;;;;3.25;1.83;;;;;;;16.08;52.63;99397.88;2618659;54;20038;-73
2022/07/07 03:03:20;;;;;;;4.47;1.95;;;;;;;15.99;53.01;99405.31;2618749;54;20034;-73
2022/07/07 03:05:49;;;;;;;4.82;1.80;;;;;;;15.96;53.92;99391.56;2618665;39;20422;-73
2022/07/07 03:08:22;;;;;;;3.67;1.90;;;;;;;15.93;54.22;99389.34;2619090;39;20426;-74
2022/07/07 03:10:59;;;;;;;1.70;1.60;;;;;;;15.90;54.35;99398.59;2617792;54;20033;-74
2022/07/07 03:13:29;;;;;;;2.65;2.08;;;;;;;15.88;54.12;99390.00;2618788;39;20442;-73
2022/07/07 03:15:59;;;;;;;3.25;1.95;;;;;;;15.80;54.34;99396.38;2619074;39;20441;-73
2022/07/07 03:18:29;;;;;;;4.00;2.30;;;;;;;15.76;53.66;99386.34;2618841;54;20027;-72
2022/07/07 03:20:59;;;;;;;3.47;1.83;;;;;;;15.76;53.81;99383.69;2618930;54;20049;-73
2022/07/07 03:23:31;;;;;;;4.78;1.95;;;;;;;15.84;53.87;99386.13;2619785;39;20451;-73
2022/07/07 03:26:01;;;;;;;5.70;2.50;;;;;;;15.82;54.37;99391.63;2619364;39;20418;-73
2022/07/07 03:28:30;;;;;;;3.97;2.10;;;;;;;15.72;54.80;99380.63;2618195;54;20022;-73
2022/07/07 03:31:00;;;;;;;2.30;2.05;;;;;;;15.63;54.98;99391.69;2618698;54;20041;-74
2022/07/07 03:33:30;;;;;;;4.35;2.17;;;;;;;15.56;55.80;99392.53;2620289;39;20440;-73
2022/07/07 03:36:00;;;;;;;3.15;2.30;;;;;;;15.53;56.02;99394.81;2619200;54;20038;-73
2022/07/07 03:38:32;;;;;;;3.92;2.20;;;;;;;15.50;55.90;99393.38;2618720;54;20042;-74
2022/07/07 03:41:01;;;;;;;3.50;2.50;;;;;;;15.42;56.06;99385.59;2618454;54;20832;-73
2022/07/07 03:43:31;;;;;;;2.30;2.10;;;;;;;15.41;56.61;99383.97;2618637;54;20022;-73
2022/07/07 03:46:01;;;;;;;2.92;2.30;;;;;;;15.42;56.26;99374.94;2618690;54;20030;-73
2022/07/07 03:48:31;;;;;;;2.53;2.00;;;;;;;15.42;56.25;99382.94;2619104;54;20029;-73
2022/07/07 03:51:01;;;;;;;5.32;2.40;;;;;;;15.43;56.79;99379.28;2619281;54;20057;-73
2022/07/07 03:53:33;;;;;;;3.08;2.30;;;;;;;15.48;56.93;99389.28;2620964;54;20026;-73
2022/07/07 03:56:03;;;;;;;3.15;2.15;;;;;;;15.49;56.49;99388.25;2623805;54;20035;-74
2022/07/07 03:58:33;;;;;;;4.22;2.58;;;;;;;15.48;57.05;99387.44;2624358;39;20431;-73
2022/07/07 04:01:12;;;;;;;3.60;2.30;;;;;;;15.49;57.03;99381.09;2597900;54;20045;31
2022/07/07 04:03:42;;;;;;;5.47;2.65;;;;;;;15.50;56.56;99382.72;2617622;54;20046;-73
2022/07/07 04:16:34;;;;;;;2.92;1.90;;;;;;;15.45;56.62;99379.06;2622590;47;20018;-66
2022/07/07 04:19:04;;;;;;;4.55;1.95;;;;;;;15.57;56.33;99386.19;2621161;54;20014;-66
2022/07/07 04:21:33;;;;;;;3.22;2.30;;;;;;;15.68;55.94;99376.75;2622616;54;20102;-66
2022/07/07 04:24:03;;;;;;;3.53;2.70;;;;;;;15.72;56.36;99380.63;2622780;54;20565;-67
2022/07/07 04:26:32;;;;;;;2.65;2.10;;;;;;;15.84;56.19;99378.94;2623165;54;20521;-66
2022/07/07 04:29:02;;;;;;;3.90;2.10;;;;;;;15.88;55.67;99365.16;2621689;54;20026;-67
2022/07/07 04:31:34;;;;;;;5.13;2.65;;;;;;;15.94;55.90;99357.13;2620395;54;20030;-67
2022/07/07 04:34:05;;;;;;;5.88;2.72;;;;;;;16.08;55.66;99360.53;2619938;54;20057;-66
2022/07/07 04:36:35;;;;;;;2.88;2.38;;;;;;;16.07;54.80;99356.22;2620004;54;20063;-66
2022/07/07 04:39:05;;;;;;;5.82;2.60;;;;;;;15.94;55.23;99365.13;2619597;54;20045;-66
2022/07/07 04:41:34;;;;;;;2.55;2.35;;;;;;;15.95;55.85;99358.75;2620047;54;20038;-66
2022/07/07 04:44:05;;;;;;;5.15;2.30;;;;;;;16.02;55.49;99359.53;2619904;54;20038;-66
2022/07/07 04:46:37;;;;;;;4.05;2.45;;;;;;;16.12;55.35;99360.91;2620515;54;20099;-66
2022/07/07 04:49:07;;;;;;;3.72;2.58;;;;;;;16.12;55.19;99358.25;2619715;51;20522;-66
2022/07/07 04:51:39;;;;;;;3.58;2.50;;;;;;;16.09;55.63;99357.66;2620272;54;20125;-66
2022/07/07 04:54:08;;;;;;;2.75;2.55;;;;;;;16.11;55.35;99362.78;2622163;39;20086;-68
2022/07/07 04:56:38;;;;;;;5.63;2.53;;;;;;;16.12;55.11;99361.72;2621395;47;20577;-66
2022/07/07 04:59:07;;;;;;;4.18;2.70;;;;;;;16.20;55.42;99366.00;2621443;54;20112;-69
2022/07/07 05:01:39;;;;;;;5.60;2.30;;;;;;;16.23;55.04;99373.56;2621677;54;20026;-69
2022/07/07 05:04:09;;;;;;;4.22;3.08;;;;;;;16.23;55.26;99361.06;2621470;54;20117;-68
2022/07/07 05:06:39;;;;;;;5.70;2.78;;;;;;;16.22;54.74;99359.44;2621787;54;20022;-68
2022/07/07 05:09:09;;;;;;;11.10;3.15;;;;;;;16.28;54.91;99352.41;2620579;54;20042;-67
2022/07/07 05:11:39;;;;;;;4.47;2.53;;;;;;;16.30;55.03;99358.34;2622185;54;20041;-67
2022/07/07 05:14:08;;;;;;;7.50;3.38;;;;;;;16.30;54.67;99359.16;2622525;54;20026;-68
2022/07/07 05:16:40;;;;;;;7.82;3.30;;;;;;;16.43;54.72;99365.44;2623313;54;20019;-68
2022/07/07 05:19:10;;;;;;;4.35;3.03;;;;;;;16.57;54.26;99357.13;2623917;54;20037;-70
2022/07/07 05:21:40;;;;;;;4.95;2.95;;;;;;;16.66;53.96;99354.19;2624033;54;20038;-70
2022/07/07 05:24:10;;;;;;;6.63;3.72;;;;;;;16.73;53.71;99350.41;2623844;54;20050;-70
2022/07/07 05:26:40;;;;;;;4.38;3.08;;;;;;;16.88;53.80;99347.41;2623167;54;20018;-69
2022/07/07 05:29:09;;;;;;;7.20;3.05;;;;;;;17.01;53.17;99351.81;2622610;54;20049;-69
2022/07/07 05:31:42;;;;;;;6.28;3.15;;;;;;;17.09;52.87;99348.84;2620565;54;20034;-68
2022/07/07 05:34:11;;;;;;;6.47;3.65;;;;;;;17.23;52.81;99345.03;2620485;54;20033;-69
2022/07/07 05:36:41;;;;;;;7.15;3.03;;;;;;;17.31;52.44;99341.25;2620410;54;20034;-68
2022/07/07 05:39:13;;;;;;;6.20;3.10;;;;;;;17.43;51.88;99333.25;2620425;54;20018;-68
2022/07/07 05:41:43;;;;;;;11.48;3.35;;;;;;;17.47;51.80;99334.44;2620572;39;20422;-68
2022/07/07 05:44:12;;;;;;;9.05;2.80;;;;;;;17.64;51.61;99335.47;2620883;54;20030;-68
2022/07/07 05:46:44;;;;;;;6.72;3.03;;;;;;;17.74;51.36;99324.25;2619791;54;20030;-68
2022/07/07 05:49:14;;;;;;;8.32;3.22;;;;;;;17.68;51.61;99334.00;2623391;39;20422;-67
2022/07/07 05:51:44;;;;;;;4.90;3.15;;;;;;;17.69;51.38;99340.16;2623547;54;20042;-67
2022/07/07 05:54:14;;;;;;;4.28;2.85;;;;;;;17.58;51.81;99336.38;2621417;54;20078;-68
2022/07/07 05:56:43;;;;;;;8.60;3.15;;;;;;;17.57;51.56;99345.44;2621587;54;20046;-64
2022/07/07 05:59:13;;;;;;;6.85;3.20;;;;;;;17.55;52.11;99347.50;2621135;54;20026;-65
2022/07/07 06:01:45;;;;;;;4.30;2.90;;;;;;;17.51;52.43;99349.84;2621723;39;20441;-65
2022/07/07 06:04:15;;;;;;;7.00;3.00;;;;;;;17.41;52.12;99357.56;2621503;54;20541;-65
2022/07/07 06:06:44;;;;;;;9.48;2.97;;;;;;;17.34;52.95;99352.28;2621271;54;20034;-65
2022/07/07 06:09:14;;;;;;;6.55;3.25;;;;;;;17.39;53.03;99353.47;2621322;54;20034;-67
2022/07/07 06:11:44;;;;;;;7.07;3.38;;;;;;;17.34;53.27;99346.13;2620266;54;20033;-66
2022/07/07 06:14:13;;;;;;;7.38;3.38;;;;;;;17.33;53.48;99347.97;2621464;39;20420;-65
2022/07/07 06:16:45;;;;;;;7.88;3.22;;;;;;;17.31;53.26;99347.41;2620903;54;20034;-68
2022/07/07 06:19:16;;;;;;;5.65;3.10;;;;;;;17.27;53.57;99348.06;2620713;54;20035;-68
2022/07/07 06:21:45;;;;;;;6.22;3.00;;;;;;;17.23;53.95;99349.56;2621397;54;20031;-67
2022/07/07 06:24:15;;;;;;;4.95;2.67;;;;;;;17.21;53.77;99351.59;2621760;54;20061;-66
2022/07/07 06:26:45;;;;;;;4.90;3.33;;;;;;;17.23;54.34;99349.56;2621573;54;20037;-67
2022/07/07 06:29:14;;;;;;;9.57;3.38;;;;;;;17.25;54.22;99345.59;2621295;54;20046;-66
2022/07/07 06:31:47;;;;;;;5.90;3.70;;;;;;;17.28;54.39;99352.38;2621508;54;20018;-66
2022/07/07 06:34:16;;;;;;;10.00;3.22;;;;;;;17.31;54.31;99355.41;2620576;54;20027;-66
2022/07/07 06:36:46;;;;;;;6.05;3.38;;;;;;;17.32;54.43;99346.34;2621405;54;20023;-66
2022/07/07 06:39:15;;;;;;;6.13;3.15;;;;;;;17.31;54.57;99339.38;2620972;54;20038;-65
2022/07/07 06:41:45;;;;;;;9.60;3.22;;;;;;;17.37;54.49;99340.31;2621341;54;20572;-67
2022/07/07 06:44:15;;;;;;;12.77;3.17;;;;;;;17.41;54.22;99340.69;2622050;39;20426;-65
2022/07/07 06:46:47;;;;;;;8.98;2.67;;;;;;;17.47;54.44;99339.78;2621243;54;20087;-65
2022/07/07 06:49:16;;;;;;;7.13;2.72;;;;;;;17.49;54.70;99335.88;2621024;54;20030;-66
2022/07/07 06:51:46;;;;;;;6.88;3.50;;;;;;;17.51;54.52;99341.81;2620558;54;20030;-67
2022/07/07 06:54:15;;;;;;;8.15;3.88;;;;;;;17.58;54.64;99342.53;2621993;54;20042;-68
2022/07/07 06:56:45;;;;;;;5.85;2.90;;;;;;;17.64;54.83;99348.03;2621670;54;20022;-65
2022/07/07 06:59:15;;;;;;;6.20;3.20;;;;;;;17.69;54.54;99354.34;2623381;54;20065;-66
2022/07/07 07:01:47;;;;;;;5.25;2.67;;;;;;;17.71;54.67;99362.94;2624350;54;20041;-67
2022/07/07 07:04:16;;;;;;;11.23;9.20;;;;;;;17.69;54.91;99359.69;2623069;54;20033;-66
2022/07/07 07:06:47;;;;;;;6.03;4.95;;;;;;;17.69;54.98;99359.69;2622002;54;20042;-66
2022/07/07 07:09:16;;;;;;;6.03;3.22;;;;;;;17.74;54.93;99364.34;2624273;54;20042;-66
2022/07/07 07:11:46;;;;;;;7.47;3.80;;;;;;;17.82;54.67;99364.06;2623486;54;20022;-65
2022/07/07 07:14:15;;;;;;;7.88;3.80;;;;;;;17.88;55.00;99360.50;2623440;39;20407;-65
2022/07/07 07:16:48;;;;;;;9.60;3.75;;;;;;;17.97;54.93;99363.69;2623718;54;20037;-65
2022/07/07 07:19:17;;;;;;;7.78;3.25;;;;;;;17.95;54.87;99363.88;2623292;47;20038;-65
2022/07/07 07:21:47;;;;;;;8.05;3.60;;;;;;;17.99;54.69;99358.91;2623634;54;20038;-66
2022/07/07 07:24:16;;;;;;;15.95;3.60;;;;;;;18.02;54.74;99361.13;2624189;39;20466;-67
2022/07/07 07:26:46;;;;;;;8.35;3.63;;;;;;;18.11;55.14;99366.97;2623611;54;20030;-69
2022/07/07 07:29:16;;;;;;;8.38;3.70;;;;;;;18.18;54.88;99363.16;2623766;54;20033;-69
2022/07/07 07:31:48;;;;;;;8.75;3.65;;;;;;;18.32;55.06;99364.56;2624259;54;20030;-69
2022/07/07 07:34:18;;;;;;;7.47;3.08;;;;;;;18.48;54.47;99371.13;2624671;54;20019;-68
2022/07/07 07:36:47;;;;;;;9.98;3.42;;;;;;;18.55;53.97;99377.22;2624571;54;20049;-69
2022/07/07 07:39:17;;;;;;;6.10;2.60;;;;;;;18.37;54.46;99376.47;2624309;54;20035;-69
2022/07/07 07:41:46;;;;;;;11.80;3.03;;;;;;;18.40;54.72;99381.34;2624166;54;20038;-68
2022/07/07 07:45:09;;;;;;;4.85;2.70;;;;;;;18.48;54.85;99384.53;2623543;54;20030;-69
2022/07/07 07:47:09;;;;;;;7.97;3.30;;;;;;;18.70;54.56;99379.47;2624414;54;20057;-67
2022/07/07 07:49:40;;;;;;;12.00;3.45;;;;;;;18.84;54.57;99365.84;2623527;54;20586;-67
2022/07/07 07:52:10;;;;;;;5.88;3.30;;;;;;;18.89;54.53;99369.47;2623759;54;20027;-67
2022/07/07 07:54:39;;;;;;;9.55;3.17;;;;;;;18.95;54.21;99370.41;2624947;39;20475;-67
2022/07/07 07:57:09;;;;;;;7.93;3.00;;;;;;;19.04;54.40;99375.16;2624325;54;20038;-67
2022/07/07 07:59:38;;;;;;;7.40;3.45;;;;;;;18.99;54.57;99382.28;2624364;39;20454;-67
2022/07/07 08:02:11;;;;;;;27.23;3.50;;;;;;;18.99;54.74;99375.06;2623749;54;20039;-67
2022/07/07 08:04:41;;;;;;;3.85;2.83;;;;;;;19.06;54.41;99385.66;2622746;54;20023;-66
2022/07/07 08:07:10;;;;;;;4.40;2.97;;;;;;;19.01;54.96;99385.53;2622783;54;20550;-67
2022/07/07 08:09:40;;;;;;;5.90;3.13;;;;;;;19.08;54.60;99377.41;2623117;39;20454;-67
2022/07/07 08:12:10;;;;;;;3.67;3.03;;;;;;;19.06;54.52;99374.94;2622673;54;20031;-66
2022/07/07 08:14:39;;;;;;;3.97;3.05;;;;;;;19.04;55.05;99380.53;2622958;54;20781;-66
2022/07/07 08:17:11;;;;;;;4.95;2.50;;;;;;;19.00;54.78;99368.66;2621595;54;20027;-66
2022/07/07 08:19:41;;;;;;;6.57;3.17;;;;;;;18.94;54.87;99355.34;2622185;54;20116;-65
2022/07/07 08:22:12;;;;;;;8.55;3.42;;;;;;;18.94;55.09;99352.69;2622322;54;20030;-66
2022/07/07 08:24:41;;;;;;;8.43;3.88;;;;;;;18.90;55.34;99352.34;2622757;39;20459;-66
2022/07/07 08:27:11;;;;;;;5.20;3.55;;;;;;;18.88;55.58;99350.94;2623767;39;20449;-66
2022/07/07 08:29:41;;;;;;;4.32;2.90;;;;;;;18.93;55.44;99351.06;2622504;54;20041;-66
2022/07/07 08:32:14;;;;;;;6.10;2.78;;;;;;;18.95;55.95;99343.63;2623146;39;20434;-66
2022/07/07 08:34:44;;;;;;;9.07;4.05;;;;;;;19.03;55.79;99344.06;2622143;54;20022;-66
2022/07/07 08:37:15;;;;;;;4.35;3.30;;;;;;;19.09;55.41;99347.66;2622559;54;20058;-66
2022/07/07 08:39:45;;;;;;;5.40;2.97;;;;;;;19.28;55.18;99351.84;2621675;54;20045;-66
2022/07/07 08:42:15;;;;;;;6.68;3.67;;;;;;;19.42;54.76;99355.06;2620675;54;20042;-67
2022/07/07 08:44:44;;;;;;;4.60;3.00;;;;;;;19.53;54.52;99356.91;2621263;54;20038;-67
2022/07/07 08:47:17;;;;;;;6.03;3.58;;;;;;;19.68;54.47;99363.69;2622103;54;20031;-68
2022/07/07 08:49:46;;;;;;;7.17;3.93;;;;;;;19.85;53.84;99353.00;2621476;54;20150;-68
2022/07/07 08:52:17;;;;;;;8.80;3.78;;;;;;;19.89;54.11;99357.66;2621749;54;20039;-67
2022/07/07 08:54:48;;;;;;;5.60;3.20;;;;;;;19.89;53.90;99354.16;2621052;54;20033;-68
2022/07/07 08:57:18;;;;;;;8.80;4.25;;;;;;;19.82;54.16;99351.59;2620974;54;20042;-67
2022/07/07 08:59:48;;;;;;;7.50;3.53;;;;;;;19.82;54.41;99353.47;2622584;54;20027;-69
2022/07/07 09:02:20;;;;;;;8.95;4.57;;;;;;;19.79;54.62;99349.41;2624495;39;20457;-68
2022/07/07 09:04:50;;;;;;;3.65;3.30;;;;;;;19.84;54.45;99352.19;2625075;39;20445;-66
2022/07/07 09:07:20;;;;;;;10.65;3.75;;;;;;;19.99;54.09;99357.00;2624092;54;20030;-68
2022/07/07 09:09:52;;;;;;;6.40;3.25;;;;;;;20.01;54.24;99357.59;2622561;54;20034;-69
2022/07/07 09:12:23;;;;;;;5.80;3.22;;;;;;;19.98;54.25;99355.41;2622570;54;20038;-68
2022/07/07 09:14:54;;;;;;;13.27;3.70;;;;;;;20.13;53.95;99344.94;2622886;54;20037;-68
2022/07/07 09:17:31;;;;;;;8.10;3.22;;;;;;;20.45;53.33;99349.75;2622981;39;20471;-67
2022/07/07 09:20:05;;;;;;;9.75;3.30;;;;;;;20.70;53.54;99346.72;2624169;54;20031;-68
2022/07/07 09:22:50;;;;;;;8.03;3.70;;;;;;;20.72;53.08;99355.31;2625472;54;20022;-68
2022/07/07 09:25:28;;;;;;;6.60;3.50;;;;;;;20.81;52.72;99358.41;2624370;54;20030;-68
2022/07/07 09:28:02;;;;;;;8.55;3.70;;;;;;;20.73;52.32;99357.75;2624126;54;20042;-70
2022/07/07 09:30:37;;;;;;;4.47;2.78;;;;;;;20.62;52.81;99356.00;2622909;39;20442;-68
2022/07/07 09:33:12;;;;;;;5.55;2.90;;;;;;;20.60;53.16;99339.28;2620048;54;20167;-68
2022/07/07 09:38:28;;;;;;;5.95;3.47;;;;;;;20.69;52.91;99339.69;2620806;54;20034;-67
2022/07/07 09:41:03;;;;;;;6.32;3.03;;;;;;;20.89;52.76;99348.06;2618301;47;20557;-65
2022/07/07 09:43:35;;;;;;;6.97;3.13;;;;;;;20.98;52.43;99353.81;2620355;54;20067;-67
2022/07/07 09:46:12;;;;;;;5.00;3.20;;;;;;;21.09;52.08;99350.22;2622222;54;20045;-68
2022/07/07 09:48:48;;;;;;;6.03;3.30;;;;;;;21.24;52.11;99353.13;2621643;54;20085;-66
2022/07/07 09:51:24;;;;;;;5.82;2.88;;;;;;;21.21;52.05;99352.81;2622167;54;20023;-67
2022/07/07 09:53:59;;;;;;;7.00;3.28;;;;;;;21.39;51.52;99346.34;2623094;54;20035;-69
2022/07/07 09:56:30;;;;;;;3.95;2.65;;;;;;;21.35;51.34;99355.97;2624703;39;20325;-66
2022/07/07 09:59:01;;;;;;;3.90;2.85;;;;;;;21.25;51.82;99349.38;2621668;54;20040;-67
2022/07/07 10:01:33;;;;;;;5.53;2.95;;;;;;;21.08;51.93;99350.47;2622425;54;20022;-67
2022/07/07 10:04:07;;;;;;;4.60;2.72;;;;;;;20.90;52.39;99362.31;2621443;54;20030;-67
2022/07/07 10:06:39;;;;;;;5.15;2.50;;;;;;;20.85;52.41;99376.47;2621514;54;20031;-67
2022/07/07 10:09:10;;;;;;;3.40;2.42;;;;;;;20.74;52.38;99367.47;2621562;54;20030;-67
2022/07/07 10:11:41;;;;;;;3.50;2.15;;;;;;;20.68;52.32;99373.81;2621508;54;20061;-67
2022/07/07 10:14:14;;;;;;;3.30;2.17;;;;;;;20.67;52.69;99368.69;2621128;54;20041;-67
2022/07/07 10:16:46;;;;;;;4.78;2.75;;;;;;;20.63;53.13;99376.41;2619556;54;20074;-70
2022/07/07 10:19:20;;;;;;;6.57;2.83;;;;;;;20.55;52.86;99384.88;2619590;54;20039;-72
2022/07/07 10:21:52;;;;;;;3.08;2.42;;;;;;;20.56;53.51;99386.50;2619867;54;20031;-72
2022/07/07 10:24:23;;;;;;;7.35;2.30;;;;;;;20.52;53.55;99380.78;2619789;54;20037;-71
2022/07/07 10:26:55;;;;;;;9.02;2.67;;;;;;;20.44;53.85;99397.28;2619468;54;20111;-72
2022/07/07 10:29:40;;;;;;;4.95;2.65;;;;;;;20.47;54.41;99406.72;2618890;39;20116;-72
2022/07/07 10:32:10;;;;;;;2.83;2.30;;;;;;;20.38;54.86;99395.56;2618894;54;20041;-71
2022/07/07 10:34:49;;;;;;;4.13;2.13;;;;;;;20.26;55.74;99406.38;2618723;54;20034;-71
2022/07/07 10:37:20;;;;;;;6.38;2.60;;;;;;;20.21;55.87;99402.78;2618490;54;20026;-71
2022/07/07 10:39:51;;;;;;;3.50;2.05;;;;;;;20.14;56.02;99404.81;2618778;39;20441;-71
2022/07/07 10:42:59;;;;;;;4.00;2.40;;;;;;;20.33;56.33;99411.59;2617793;46;20037;-71
2022/07/07 10:45:30;;;;;;;4.20;1.90;;;;;;;20.68;56.04;99419.47;2619156;54;20030;-71
2022/07/07 10:48:00;;;;;;;2.75;2.05;;;;;;;20.97;55.17;99412.13;2618096;54;20034;-71
2022/07/07 10:50:35;;;;;;;4.72;2.20;;;;;;;21.23;54.21;99407.97;2617541;47;20545;-71
2022/07/07 10:53:05;;;;;;;3.50;1.90;;;;;;;21.41;53.71;99411.47;2617975;47;20030;-71
2022/07/07 10:55:54;;;;;;;2.65;1.95;;;;;;;21.71;52.91;99411.84;2617926;47;20537;-72
2022/07/07 10:58:54;;;;;;;2.45;1.65;;;;;;;21.94;52.24;99409.97;2618592;54;20034;-72
2022/07/07 11:01:25;;;;;;;3.20;1.90;;;;;;;21.98;52.08;99414.59;2617629;54;20031;-72
2022/07/07 11:03:55;;;;;;;2.92;1.50;;;;;;;22.10;51.85;99416.31;2618483;54;20034;-72
2022/07/07 11:06:28;;;;;;;1.67;1.52;;;;;;;22.04;51.57;99428.09;2618391;54;20121;-72
2022/07/07 11:09:01;;;;;;;3.30;1.60;;;;;;;21.98;50.53;99435.31;2619245;54;20034;-72
2022/07/07 11:11:31;;;;;;;2.72;1.60;;;;;;;21.81;51.33;99423.81;2618911;54;20027;-72
2022/07/07 11:14:07;;;;;;;2.75;1.80;;;;;;;21.93;51.29;99421.81;2619180;54;20038;-71
2022/07/07 11:16:39;;;;;;;2.40;1.10;;;;;;;22.04;50.76;99420.81;2618849;54;20034;-71
2022/07/07 11:19:10;;;;;;;2.65;1.70;;;;;;;22.20;50.28;99424.53;2618483;54;20042;-71
2022/07/07 11:21:47;;;;;;;1.92;1.38;;;;;;;22.19;50.13;99421.03;2618263;47;20031;-72
2022/07/07 11:24:20;;;;;;;2.22;0.90;;;;;;;21.95;50.15;99422.34;2618877;54;20086;-71
2022/07/07 11:26:57;;;;;;;2.05;1.00;;;;;;;21.86;50.68;99430.06;2618568;54;20034;-72
2022/07/07 11:29:27;;;;;;;1.17;1.08;;;;;;;21.82;50.52;99428.94;2617730;51;20130;-71
2022/07/07 11:32:07;;;;;;;1.88;0.93;;;;;;;21.72;50.97;99423.44;2619551;54;20030;-71
2022/07/07 11:34:46;;;;;;;1.95;1.40;;;;;;;21.76;51.63;99446.09;2621757;54;20031;-72
2022/07/07 11:37:37;;;;;;;2.13;1.55;;;;;;;21.74;52.46;99440.94;2622588;54;20030;-72
2022/07/07 11:40:24;;;;;;;4.22;1.15;;;;;;;21.89;52.08;99451.09;2623934;54;20027;-71
2022/07/07 11:42:54;;;;;;;1.13;0.90;;;;;;;21.69;50.84;99443.56;2623995;47;20636;-72
2022/07/07 11:45:25;;;;;;;1.10;0.70;;;;;;;21.54;50.31;99445.25;2621141;54;20546;-70
2022/07/07 11:47:58;;;;;;;1.55;0.80;;;;;;;21.45;50.54;99442.97;2618895;54;20047;-71
2022/07/07 11:50:28;;;;;;;1.13;0.90;;;;;;;21.38;50.60;99453.09;2617910;47;20050;-71
2022/07/07 11:53:02;;;;;;;0.70;0.70;;;;;;;21.38;50.55;99454.97;2618651;54;20035;-72
2022/07/07 11:55:33;;;;;;;0.80;0.80;;;;;;;21.26;50.20;99458.53;2618715;54;20039;-71
2022/07/07 11:58:05;;;;;;;0.70;0.70;;;;;;;21.06;49.75;99443.97;2618550;54;20039;-71
2022/07/07 12:00:36;;;;;;;2.58;0.75;;;;;;;20.86;50.70;99458.75;2618367;47;20026;-73
2022/07/07 12:03:10;;;;;;;2.05;0.70;;;;;;;20.85;50.90;99456.28;2619039;54;20038;-72
2022/07/07 12:05:43;;;;;;;1.10;0.73;;;;;;;21.02;50.97;99457.09;2619158;54;20034;-70
2022/07/07 12:08:16;;;;;;;;;;;;;;;21.17;50.44;99454.66;2619421;54;20038;-71
2022/07/07 12:10:53;;;;;;;0.90;0.80;;;;;;;21.23;50.63;99453.69;2619175;39;20352;-71